Flight Track Log - Related Links

Times and Time Zones

All times are in EDT time to prevent confusion due to time zone crossing. See the THY368 flight status page for this flight to view local times or setup timezone preferences in your user account.

Time Position Orientation Groundspeed Altitude Reporting Facility
EDT Latitude Longitude Course Direction KTS MPH feet Rate Location/Type
Mon 05:03:18 PM 40.9750 28.8150 267° West 13 15  Level FlightAware ADS-B
Mon 05:03:48 PM 40.9750 28.8130 270° West 8 9 53 Level FlightAware ADS-B
Mon 05:04:08 PM 40.9740 28.8120 217° Southwest 13 15 58 Level FlightAware ADS-B
Mon 05:04:34 PM 40.9730 28.8120 180° South 6 7 63 Level FlightAware ADS-B
Mon 05:05:13 PM 40.9710 28.8120 180° South 12 14 69 Level FlightAware ADS-B
Mon 05:05:44 PM 40.9700 28.8120 180° South 7 8 81 Level FlightAware ADS-B
Mon 05:08:00 PM 41.0351 29.1571 76° East  Level Estimated
Mon 05:08:19 PM 40.9810 28.8090 76° East 135 155  Level FlightAware ADS-B
Mon 05:08:56 PM 41.0030 28.8080 358° North 135 155 300 1,900 Climbing FlightAware ADS-B
Mon 05:09:19 PM 41.0260 28.8080 360° North 176 203 1,900 2,791 Climbing FlightAware ADS-B
Mon 05:09:39 PM 41.0460 28.8070 358° North 193 222 2,300 1,662 Climbing FlightAware ADS-B
Mon 05:10:24 PM 41.0830 28.8260 21° North 205 236 3,700 1,800 Climbing FlightAware ADS-B
Mon 05:10:39 PM 41.0870 28.8480 76° East 226 260 4,100 1,500 Climbing FlightAware ADS-B
Mon 05:11:08 PM 41.0920 28.8840 80° East 245 282 4,800 2,073 Climbing FlightAware ADS-B
Mon 05:11:34 PM 41.1090 28.9230 60° Northeast 252 290 6,000 2,588 Climbing FlightAware ADS-B
Mon 05:11:59 PM 41.1250 28.9560 57° Northeast 255 293 7,000 2,591 Climbing FlightAware ADS-B
Mon 05:12:18 PM 41.1360 28.9820 61° Northeast 255 293 7,900 2,133 Climbing FlightAware ADS-B
Mon 05:12:44 PM 41.1520 29.0160 58° Northeast 265 305 8,600 1,765 Climbing FlightAware ADS-B
Mon 05:13:09 PM 41.1680 29.0520 59° Northeast 278 320 9,400 1,800 Climbing FlightAware ADS-B
Mon 05:13:54 PM 41.1990 29.1190 58° Northeast 298 343 10,700 1,350 Climbing FlightAware ADS-B
Mon 05:14:29 PM 41.2270 29.1810 59° Northeast 331 381 11,200 1,040 Climbing FlightAware ADS-B
Mon 05:15:09 PM 41.2610 29.2550 59° Northeast 360 414 12,000 1,671 Climbing FlightAware ADS-B
Mon 05:15:48 PM 41.2960 29.3340 59° Northeast 373 429 13,400 1,906 Climbing FlightAware ADS-B
Mon 05:16:34 PM 41.3360 29.4220 59° Northeast 387 445 14,700 1,694 Climbing FlightAware ADS-B
Mon 05:17:13 PM 41.3700 29.4990 60° Northeast 390 449 15,800 1,835 Climbing FlightAware ADS-B
Mon 05:17:59 PM 41.4160 29.6010 59° Northeast 395 455 17,300 1,765 Climbing FlightAware ADS-B
Mon 05:18:38 PM 41.4530 29.6850 60° Northeast 408 470 18,300 1,575 Climbing FlightAware ADS-B
Mon 05:19:19 PM 41.4790 29.7840 71° East 415 478 19,400 1,481 Climbing FlightAware ADS-B
Mon 05:19:59 PM 41.4980 29.8790 75° East 422 486 20,300 1,275 Climbing FlightAware ADS-B
Mon 05:20:39 PM 41.5180 29.9830 76° East 432 497 21,100 1,125 Climbing FlightAware ADS-B
Mon 05:21:19 PM 41.5390 30.0900 75° East 445 512 21,800 1,200 Climbing FlightAware ADS-B
Mon 05:21:54 PM 41.5570 30.1840 76° East 450 518 22,600 1,185 Climbing FlightAware ADS-B
Mon 05:22:40 PM 41.5810 30.3110 76° East 458 527 23,400 1,024 Climbing FlightAware ADS-B
Mon 05:23:16 PM 41.5990 30.4020 75° East 463 533 24,000 1,125 Climbing FlightAware ADS-B
Mon 05:24:00 PM 41.6230 30.5300 76° East 467 537 24,900 1,146 Climbing FlightAware ADS-B
Mon 05:24:45 PM 41.6460 30.6540 76° East 471 542 25,700 988 Climbing FlightAware ADS-B
Mon 05:25:25 PM 41.6660 30.7600 76° East 474 545 26,300 900 Climbing FlightAware ADS-B
Mon 05:26:05 PM 41.6870 30.8760 76° East 477 549 26,900 889 Climbing FlightAware ADS-B
Mon 05:26:46 PM 41.7100 30.9990 76° East 482 555 27,500 825 Climbing FlightAware ADS-B
Mon 05:27:25 PM 41.7320 31.1160 76° East 486 559 28,000 933 Climbing FlightAware ADS-B
Mon 05:28:16 PM 41.7580 31.2590 76° East 488 562 28,900 1,000 Climbing FlightAware ADS-B
Mon 05:28:55 PM 41.7790 31.3770 77° East 485 558 29,500 1,063 Climbing FlightAware ADS-B
Mon 05:29:35 PM 41.8000 31.4970 77° East 481 554 30,300 1,125 Climbing FlightAware ADS-B
Mon 05:30:15 PM 41.8210 31.6100 76° East 476 548 31,000 742 Climbing FlightAware ADS-B
Mon 05:31:04 PM 41.8460 31.7500 76° East 483 556 31,400 467 Climbing FlightAware ADS-B
Mon 05:31:45 PM 41.8670 31.8730 77° East 490 564 31,700 444 Climbing FlightAware ADS-B
Mon 05:32:25 PM 41.8860 31.9810 77° East 492 566 32,000 632 Climbing FlightAware ADS-B
Mon 05:33:20 PM 41.9160 32.1540 77° East 491 565 32,700 606 Climbing FlightAware ADS-B
Mon 05:34:04 PM 41.9390 32.2900 77° East 494 568 33,000 207 Climbing FlightAware ADS-B
Mon 05:34:47 PM 41.9580 32.3980 77° East 503 579 33,000  Level FlightAware ADS-B
Mon 05:35:29 PM 41.9830 32.5490 77° East 508 585 33,000  Level FlightAware ADS-B
Mon 05:36:20 PM 42.0050 32.6770 77° East 508 585 33,000  Level FlightAware ADS-B
Mon 05:37:08 PM 42.0270 32.8030 77° East 508 585 33,000  Level FlightAware ADS-B
Mon 05:37:46 PM 42.0440 32.9020 77° East 508 585 33,000  Level FlightAware ADS-B
Mon 05:38:22 PM 42.0600 32.9970 77° East 508 585 33,000  Level FlightAware ADS-B
Mon 05:39:10 PM 42.0810 33.1230 77° East 508 585 33,000  Level FlightAware ADS-B
Mon 05:39:46 PM 42.0980 33.2170 76° East 508 585 33,000  Level FlightAware ADS-B
Mon 05:40:58 PM 42.1300 33.4060 77° East 508 585 33,000  Level FlightAware ADS-B
Mon 05:41:34 PM 42.1460 33.5000 77° East 508 585 33,000  Level FlightAware ADS-B
Mon 05:42:22 PM 42.1680 33.6260 77° East 508 585 33,000  Level FlightAware ADS-B
Mon 05:42:59 PM 42.1840 33.7240 78° East 508 585 33,000  Level FlightAware ADS-B
Mon 05:43:35 PM 42.2000 33.8180 77° East 508 585 33,000  Level FlightAware ADS-B
Mon 05:44:35 PM 42.2270 33.9760 77° East 508 585 33,000  Level FlightAware ADS-B
Mon 05:45:02 PM 42.2390 34.0470 77° East 508 585 33,000  Level FlightAware ADS-B
Mon 05:45:38 PM 42.2560 34.1420 76° East 508 585 33,000  Level FlightAware ADS-B
Mon 05:48:00 PM 42.3144 34.6067 80° East  Level Estimated
Mon 05:49:00 PM 42.3385 34.8032 81° East  Level Estimated
Mon 05:50:00 PM 42.3623 35.0000 81° East  Level Estimated
Mon 05:51:00 PM 42.3857 35.1969 81° East  Level Estimated
Mon 05:52:00 PM 42.4088 35.3939 81° East  Level Estimated
Mon 05:53:00 PM 42.4315 35.5911 81° East  Level Estimated
Mon 05:54:00 PM 42.4539 35.7884 81° East  Level Estimated
Mon 05:55:00 PM 42.4760 35.9859 81° East  Level Estimated
Mon 05:56:00 PM 42.4978 36.1835 81° East  Level Estimated
Mon 05:57:00 PM 42.5192 36.3812 82° East  Level Estimated
Mon 05:58:00 PM 42.5402 36.5791 82° East  Level Estimated
Mon 05:59:00 PM 42.5610 36.7771 82° East  Level Estimated
Mon 06:00:00 PM 42.5813 36.9752 82° East  Level Estimated
Mon 06:01:00 PM 42.6014 37.1735 82° East  Level Estimated
Mon 06:02:00 PM 42.6211 37.3718 82° East  Level Estimated
Mon 06:02:35 PM 42.9170 37.5970 82° East 546 628 33,000  Level FlightAware ADS-B
Mon 06:03:39 PM 42.9790 37.8040 68° East 545 627 33,000  Level FlightAware ADS-B
Mon 06:04:20 PM 43.0090 37.9070 68° East 544 626 33,000  Level FlightAware ADS-B
Mon 06:05:04 PM 43.0540 38.0580 68° East 543 625 33,000  Level FlightAware ADS-B
Mon 06:05:44 PM 43.0910 38.1870 69° East 542 624 33,000  Level FlightAware ADS-B
Mon 06:06:24 PM 43.1300 38.3200 68° East 543 625 33,000  Level FlightAware ADS-B
Mon 06:07:12 PM 43.1730 38.4670 68° East 542 624 33,000  Level FlightAware ADS-B
Mon 06:07:52 PM 43.2080 38.5890 68° East 544 626 33,000  Level FlightAware ADS-B
Mon 06:08:33 PM 43.2500 38.7320 68° East 545 627 33,000  Level FlightAware ADS-B
Mon 06:09:13 PM 43.2850 38.8550 69° East 549 632 33,000  Level FlightAware ADS-B
Mon 06:10:01 PM 43.3330 39.0280 69° East 554 638 33,000 68 Level FlightAware ADS-B
Mon 06:10:41 PM 43.3720 39.1560 67° East 561 646 33,100 75 Climbing FlightAware ADS-B
Mon 06:11:21 PM 43.4180 39.2890 65° Northeast 562 647 33,100  Level FlightAware ADS-B
Mon 06:12:02 PM 43.4600 39.4160 65° Northeast 563 648 33,100  Level FlightAware ADS-B
Mon 06:12:42 PM 43.5030 39.5440 65° Northeast 562 647 33,100 -67 Level FlightAware ADS-B
Mon 06:13:31 PM 43.5570 39.7070 65° Northeast 562 647 33,000 -63 Descending FlightAware ADS-B
Mon 06:14:18 PM 43.6070 39.8590 66° East 559 643 33,000  Level FlightAware ADS-B
Mon 06:14:58 PM 43.6480 39.9840 66° East 557 641 33,000  Level FlightAware ADS-B
Mon 06:15:44 PM 43.6940 40.1250 66° East 555 639 33,000  Level FlightAware ADS-B
Mon 06:16:24 PM 43.7390 40.2640 66° East 553 636 33,000  Level FlightAware ADS-B
Mon 06:17:04 PM 43.7800 40.3900 66° East 552 635 33,000  Level FlightAware ADS-B
Mon 06:17:44 PM 43.8210 40.5200 66° East 548 631 33,000  Level FlightAware ADS-B
Mon 06:18:24 PM 43.8560 40.6480 69° East 545 627 33,000 -63 Level FlightAware ADS-B
Mon 06:19:19 PM 43.8810 40.7960 77° East 538 619 32,900  Descending FlightAware ADS-B
Mon 06:19:54 PM 43.8930 40.9640 84° East 531 611 33,000 60 Climbing FlightAware ADS-B
Mon 06:20:59 PM 43.9020 41.2020 87° East 542 624 33,000  Level FlightAware ADS-B
Mon 06:22:16 PM 43.9120 41.4250 86° East 544 626 33,000  Level FlightAware ADS-B
Mon 06:22:38 PM 43.9140 41.4990 88° East 544 626 33,000  Level FlightAware ADS-B
Mon 06:24:06 PM 43.9260 41.8270 87° East 542 624 33,000  Level FlightAware ADS-B
Mon 06:24:45 PM 43.9310 41.9740 87° East 543 625 33,000  Level FlightAware ADS-B
Mon 06:25:24 PM 43.9350 42.1180 88° East 544 626 33,000  Level FlightAware ADS-B
Mon 06:26:09 PM 43.9400 42.2640 87° East 547 629 33,000  Level FlightAware ADS-B
Mon 06:26:39 PM 43.9430 42.3840 88° East 548 631 33,000  Level FlightAware ADS-B
Mon 06:27:24 PM 43.9470 42.5370 88° East 547 629 33,000  Level FlightAware ADS-B
Mon 06:28:04 PM 43.9510 42.6810 88° East 545 627 33,000  Level FlightAware ADS-B
Mon 06:28:59 PM 43.9510 42.8640 90° East 544 626 33,000  Level FlightAware ADS-B
Mon 06:29:39 PM 43.9510 43.0110 90° East 545 627 33,000  Level FlightAware ADS-B
Mon 06:30:19 PM 43.9520 43.1460 89° East 546 628 33,000  Level FlightAware ADS-B
Mon 06:30:54 PM 43.9520 43.2770 90° East 546 628 33,000  Level FlightAware ADS-B
Mon 06:31:40 PM 43.9510 43.4260 90° East 545 627 33,000  Level FlightAware ADS-B
Mon 06:32:20 PM 43.9510 43.5570 90° East 544 626 33,000  Level FlightAware ADS-B
Mon 06:33:14 PM 43.9500 43.7590 90° East 541 623 33,000  Level FlightAware ADS-B
Mon 06:34:09 PM 43.9500 43.9330 90° East 540 621 33,000  Level FlightAware ADS-B
Mon 06:34:57 PM 43.9500 43.9740 90° East 540 621 33,000  Level FlightAware ADS-B
Mon 06:35:28 PM 43.9470 44.2220 91° East 540 621 33,000  Level FlightAware ADS-B
Mon 06:36:10 PM 43.9470 44.3550 90° East 540 621 33,000  Level FlightAware ADS-B
Mon 06:36:54 PM 43.9450 44.5090 91° East 541 623 33,000  Level FlightAware ADS-B
Mon 06:37:41 PM 43.9420 44.6830 91° East 545 627 33,000  Level FlightAware ADS-B
Mon 06:38:24 PM 43.9400 44.8350 91° East 547 629 33,000 68 Level FlightAware ADS-B
Mon 06:39:09 PM 43.9380 44.9920 91° East 547 629 33,100 71 Climbing FlightAware ADS-B
Mon 06:39:49 PM 43.9360 45.1260 91° East 547 629 33,100 -74 Level FlightAware ADS-B
Mon 06:40:30 PM 43.9330 45.2720 92° East 547 629 33,000 -75 Descending FlightAware ADS-B
Mon 06:41:09 PM 43.9300 45.4070 92° East 547 629 33,000  Level FlightAware ADS-B
Mon 06:41:50 PM 43.9280 45.5540 91° East 546 628 33,000  Level FlightAware ADS-B
Mon 06:42:29 PM 43.9270 45.5840 93° East 545 627 33,000  Level FlightAware ADS-B
Mon 06:43:14 PM 43.9220 45.8400 91° East 545 627 33,000  Level FlightAware ADS-B
Mon 06:43:54 PM 43.9140 45.9760 95° East 540 621 33,000  Level FlightAware ADS-B
Mon 06:44:34 PM 43.9000 46.1120 98° East 538 619 33,000  Level FlightAware ADS-B
Mon 06:45:14 PM 43.8840 46.2620 98° East 539 620 33,000  Level FlightAware ADS-B
Mon 06:45:59 PM 43.8680 46.4110 98° East 536 617 33,000  Level FlightAware ADS-B
Mon 06:46:59 PM 43.8460 46.6100 99° East 537 618 33,000  Level FlightAware ADS-B
Mon 06:47:39 PM 43.8370 46.7510 95° East 546 628 33,000  Level FlightAware ADS-B
Mon 06:48:19 PM 43.8390 46.8940 89° East 550 633 33,000  Level FlightAware ADS-B
Mon 06:49:04 PM 43.8440 47.0530 87° East 554 638 33,000  Level FlightAware ADS-B
Mon 06:49:44 PM 43.8470 47.1910 88° East 560 644 33,000  Level FlightAware ADS-B
Mon 06:50:29 PM 43.8500 47.3450 88° East 559 643 33,000  Level FlightAware ADS-B
Mon 06:51:09 PM 43.8530 47.4900 88° East 559 643 33,000  Level FlightAware ADS-B
Mon 06:51:44 PM 43.8560 47.6230 88° East 559 643 33,000  Level FlightAware ADS-B
Mon 06:52:24 PM 43.8580 47.7690 89° East 559 643 33,000  Level FlightAware ADS-B
Mon 06:53:09 PM 43.8610 47.9250 88° East 558 642 33,000  Level FlightAware ADS-B
Mon 06:53:39 PM 43.8630 48.0360 89° East 558 642 33,000  Level FlightAware ADS-B
Mon 06:54:24 PM 43.8650 48.1870 89° East 558 642 33,000  Level FlightAware ADS-B
Mon 06:55:09 PM 43.8670 48.3540 89° East 557 641 33,000  Level FlightAware ADS-B
Mon 06:55:39 PM 43.8680 48.4550 89° East 558 642 33,000  Level FlightAware ADS-B
Mon 06:56:24 PM 43.8700 48.6160 89° East 560 644 33,000  Level FlightAware ADS-B
Mon 06:57:04 PM 43.8710 48.7610 89° East 561 646 33,000  Level FlightAware ADS-B
Mon 06:57:49 PM 43.8720 48.9220 89° East 562 647 33,000  Level FlightAware ADS-B
Mon 06:58:30 PM 43.8730 49.0730 89° East 564 649 33,000  Level FlightAware ADS-B
Mon 06:59:14 PM 43.8730 49.2250 90° East 565 650 33,000  Level FlightAware ADS-B
Mon 07:00:09 PM 43.8730 49.4280 90° East 567 652 33,000  Level FlightAware ADS-B
Mon 07:00:39 PM 43.8730 49.5310 90° East 567 652 33,000  Level FlightAware ADS-B
Mon 07:01:19 PM 43.8730 49.6840 90° East 565 650 33,000  Level FlightAware ADS-B
Mon 07:02:39 PM 43.8720 49.9620 90° East 564 649 33,000  Level FlightAware ADS-B
Mon 07:03:24 PM 43.8700 50.1300 91° East 563 648 33,000  Level FlightAware ADS-B
Mon 07:04:09 PM 43.8700 50.1520 90° East 563 648 33,000  Level FlightAware ADS-B
Mon 07:04:46 PM 43.8690 50.4010 90° East 563 648 33,000  Level FlightAware ADS-B
Mon 07:05:34 PM 43.8690 50.5490 90° East 563 648 33,000  Level FlightAware ADS-B
Mon 07:06:10 PM 43.8690 50.6590 90° East 563 648 33,000  Level FlightAware ADS-B
Mon 07:06:58 PM 43.8690 50.8060 90° East 563 648 33,000  Level FlightAware ADS-B
Mon 07:08:02 PM 43.8590 51.0890 93° East 560 644 33,000  Level FlightAware ADS-B
Mon 07:08:39 PM 43.8580 51.2020 91° East 560 644 33,000  Level FlightAware ADS-B
Mon 07:09:29 PM 43.8180 51.4330 103° East 549 632 33,000  Level FlightAware ADS-B
Mon 07:10:14 PM 43.8010 51.5700 100° East 547 629 33,000  Level FlightAware ADS-B
Mon 07:10:52 PM 43.7850 51.7010 100° East 545 627 33,000  Level FlightAware ADS-B
Mon 07:11:27 PM 43.7680 51.8350 100° East 543 625 33,000  Level FlightAware ADS-B
Mon 07:12:11 PM 43.7510 51.9660 100° East 543 625 33,000  Level FlightAware ADS-B
Mon 07:12:50 PM 43.7320 52.1180 100° East 543 625 33,000  Level FlightAware ADS-B
Mon 07:13:35 PM 43.7130 52.2590 101° East 544 626 33,000  Level FlightAware ADS-B
Mon 07:14:13 PM 43.6960 52.3920 100° East 545 627 33,000  Level FlightAware ADS-B
Mon 07:14:58 PM 43.6740 52.5540 101° East 547 629 33,000  Level FlightAware ADS-B
Mon 07:15:34 PM 43.6610 52.6530 100° East 547 629 33,000  Level FlightAware ADS-B
Mon 07:16:22 PM 43.6430 52.7940 100° East 547 629 33,000  Level FlightAware ADS-B
Mon 07:16:58 PM 43.6300 52.8990 100° East 547 629 33,000  Level FlightAware ADS-B
Mon 07:17:34 PM 43.6160 53.0040 100° East 547 629 33,000  Level FlightAware ADS-B
Mon 07:18:33 PM 43.5940 53.1770 100° East 547 629 33,000  Level FlightAware ADS-B
Mon 07:19:21 PM 43.5760 53.3170 100° East 547 629 33,000  Level FlightAware ADS-B
Mon 07:19:57 PM 43.5630 53.4230 100° East 547 629 33,000  Level FlightAware ADS-B
Mon 07:20:45 PM 43.5450 53.5630 100° East 547 629 33,000  Level FlightAware ADS-B
Mon 07:21:19 PM 43.5320 53.6620 100° East 547 629 33,000  Level FlightAware ADS-B
Mon 07:21:55 PM 43.5190 53.7680 100° East 547 629 33,000  Level FlightAware ADS-B
Mon 07:22:44 PM 43.5010 53.9110 100° East 547 629 33,000  Level FlightAware ADS-B
Mon 07:23:21 PM 43.4870 54.0190 100° East 547 629 33,000  Level FlightAware ADS-B
Mon 07:23:57 PM 43.4730 54.1240 100° East 547 629 33,000  Level FlightAware ADS-B
Mon 07:24:34 PM 43.4590 54.2320 100° East 547 629 33,000  Level FlightAware ADS-B
Mon 07:27:00 PM 43.4202 54.7228 96° East  Level Estimated
Mon 07:28:00 PM 43.4036 54.9244 96° East  Level Estimated
Mon 07:29:00 PM 43.3867 55.1258 97° East  Level Estimated
Mon 07:30:00 PM 43.3694 55.3271 97° East  Level Estimated
Mon 07:31:00 PM 43.3518 55.5282 97° East  Level Estimated
Mon 07:32:00 PM 43.3338 55.7293 97° East  Level Estimated
Mon 07:33:00 PM 43.3155 55.9303 97° East  Level Estimated
Mon 07:34:00 PM 43.2968 56.1311 97° East  Level Estimated
Mon 07:35:00 PM 43.2778 56.3318 97° East  Level Estimated
Mon 07:36:00 PM 43.2584 56.5323 97° East  Level Estimated
Mon 07:37:00 PM 43.2387 56.7328 98° East  Level Estimated
Mon 07:38:00 PM 43.2186 56.9331 98° East  Level Estimated
Mon 07:39:00 PM 43.1982 57.1333 98° East  Level Estimated
Mon 07:40:00 PM 43.1774 57.3333 98° East  Level Estimated
Mon 07:41:00 PM 43.1563 57.5332 98° East  Level Estimated
Mon 07:42:00 PM 43.1348 57.7330 98° East  Level Estimated
Mon 07:43:00 PM 43.1130 57.9326 98° East  Level Estimated
Mon 07:44:00 PM 43.0908 58.1321 99° East  Level Estimated
Mon 07:45:00 PM 43.0683 58.3315 99° East  Level Estimated
Mon 07:46:00 PM 43.0454 58.5306 99° East  Level Estimated
Mon 07:47:00 PM 43.0222 58.7297 99° East  Level Estimated
Mon 07:48:00 PM 42.9987 58.9286 99° East  Level Estimated
Mon 07:49:00 PM 42.9748 59.1273 99° East  Level Estimated
Mon 07:50:00 PM 42.9506 59.3259 99° East  Level Estimated
Mon 07:51:00 PM 42.9260 59.5243 100° East  Level Estimated
Mon 07:52:00 PM 42.9011 59.7226 100° East  Level Estimated
Mon 07:53:00 PM 42.8758 59.9207 100° East  Level Estimated
Mon 07:54:00 PM 42.8502 60.1186 100° East  Level Estimated
Mon 07:55:00 PM 42.8242 60.3164 100° East  Level Estimated
Mon 07:56:00 PM 42.7979 60.5140 100° East  Level Estimated
Mon 07:57:00 PM 42.7713 60.7114 100° East  Level Estimated
Mon 07:58:00 PM 42.7444 60.9087 100° East  Level Estimated
Mon 07:59:00 PM 42.7170 61.1058 101° East  Level Estimated
Mon 08:00:00 PM 42.6894 61.3027 101° East  Level Estimated
Mon 08:01:00 PM 42.6614 61.4994 101° East  Level Estimated
Mon 08:02:00 PM 42.6331 61.6960 101° East  Level Estimated
Mon 08:03:00 PM 42.6045 61.8924 101° East  Level Estimated
Mon 08:04:00 PM 42.5755 62.0886 101° East  Level Estimated
Mon 08:05:00 PM 42.5462 62.2846 101° East  Level Estimated
Mon 08:06:00 PM 42.5165 62.4804 102° East  Level Estimated
Mon 08:07:00 PM 42.4865 62.6761 102° East  Level Estimated
Mon 08:08:00 PM 42.4562 62.8715 102° East  Level Estimated
Mon 08:09:00 PM 42.4255 63.0668 102° East  Level Estimated
Mon 08:10:00 PM 42.3946 63.2619 102° East  Level Estimated
Mon 08:11:00 PM 42.3633 63.4568 102° East  Level Estimated
Mon 08:12:00 PM 42.3316 63.6515 102° East  Level Estimated
Mon 08:13:00 PM 42.2996 63.8460 102° East  Level Estimated
Mon 08:14:00 PM 42.2673 64.0402 103° East  Level Estimated
Mon 08:15:00 PM 42.2347 64.2343 103° East  Level Estimated
Mon 08:16:00 PM 42.2018 64.4282 103° East  Level Estimated
Mon 08:17:00 PM 42.1685 64.6219 103° East  Level Estimated
Mon 08:18:00 PM 42.1349 64.8154 103° East  Level Estimated
Mon 08:19:00 PM 42.1010 65.0087 103° East  Level Estimated
Mon 08:20:00 PM 42.0667 65.2017 103° East  Level Estimated
Mon 08:21:00 PM 42.0321 65.3946 104° East  Level Estimated
Mon 08:22:00 PM 41.9972 65.5872 104° East  Level Estimated
Mon 08:23:00 PM 41.9620 65.7797 104° East  Level Estimated
Mon 08:24:00 PM 41.9265 65.9719 104° East  Level Estimated
Mon 08:25:00 PM 41.8906 66.1639 104° East  Level Estimated
Mon 08:26:00 PM 41.8544 66.3557 104° East  Level Estimated
Mon 08:27:00 PM 41.8179 66.5473 104° East  Level Estimated
Mon 08:28:00 PM 41.7811 66.7386 104° East  Level Estimated
Mon 08:29:00 PM 41.7440 66.9298 105° East  Level Estimated
Mon 08:30:00 PM 41.7065 67.1207 105° East  Level Estimated
Mon 08:31:00 PM 41.6688 67.3114 105° East  Level Estimated
Mon 08:32:00 PM 41.6307 67.5019 105° East  Level Estimated
Mon 08:33:00 PM 41.5923 67.6921 105° East  Level Estimated
Mon 08:34:00 PM 41.5536 67.8821 105° East  Level Estimated
Mon 08:35:00 PM 41.5145 68.0719 105° East  Level Estimated
Mon 08:36:00 PM 41.4752 68.2614 105° East  Level Estimated
Mon 08:37:00 PM 41.4356 68.4508 106° East  Level Estimated
Mon 08:38:00 PM 41.3956 68.6398 106° East  Level Estimated
Mon 08:39:00 PM 41.3553 68.8287 106° East  Level Estimated
Mon 08:40:00 PM 41.3148 69.0173 106° East  Level Estimated
Mon 08:41:00 PM 41.2739 69.2057 106° East  Level Estimated
Mon 08:42:00 PM 41.2573 69.2817 106° East  Level Estimated
Mon 08:43:00 PM 41.2573 69.2817 209° Southwest  Level Estimated
Mon 08:44:00 PM 41.2573 69.2817 209° Southwest  Level Estimated
Mon 08:45:00 PM 41.2573 69.2817 209° Southwest  Level Estimated
Mon 08:46:00 PM 41.2573 69.2817 209° Southwest  Level Estimated
Mon 08:47:00 PM 41.2573 69.2817 209° Southwest  Level Estimated
Mon 08:48:00 PM 41.2573 69.2817 209° Southwest  Level Estimated
Mon 08:49:00 PM 41.2573 69.2817 209° Southwest  Level Estimated

Login

Don't have an account? Register now (free) for customized features, flight alerts, and more!